Time;durP1;ratioP1;P1;durP2;ratioP2;P2;SDS_P1;SDS_P2;PMS_P1;PMS_P2;Temp;Humidity;BMP_temperature;BMP_pressure;BME280_temperature;BME280_humidity;BME280_pressure;Samples;Min_cycle;Max_cycle;Signal;HPM_P1;HPM_P2
2021/11/08 00:02:04;;;;;;;12.20;7.00;;;8.10;99.90;;;;;;5080445;28;20378;-54
2021/11/08 00:04:32;;;;;;;13.85;7.53;;;8.10;99.90;;;;;;5079459;28;20436;-54
2021/11/08 00:06:59;;;;;;;15.32;7.97;;;8.20;99.90;;;;;;5081367;28;20398;-54
2021/11/08 00:09:25;;;;;;;17.20;7.50;;;8.20;99.90;;;;;;5084985;28;20409;-54
2021/11/08 00:11:51;;;;;;;11.17;6.73;;;8.30;99.90;;;;;;5079770;28;20429;-54
2021/11/08 00:14:19;;;;;;;13.63;7.47;;;8.30;99.90;;;;;;5080443;28;20431;-54
2021/11/08 00:21:48;;;;;;;12.10;6.70;;;8.20;99.90;;;;;;5080024;28;20394;-54
2021/11/08 00:24:16;;;;;;;17.83;7.35;;;8.20;99.90;;;;;;5090767;28;20819;-53
2021/11/08 00:26:42;;;;;;;20.42;7.80;;;8.20;99.90;;;;;;5086129;28;20396;-54
2021/11/08 00:29:08;;;;;;;15.07;7.70;;;8.10;99.90;;;;;;5084677;28;21034;-54
2021/11/08 00:31:34;;;;;;;14.93;7.28;;;8.00;99.90;;;;;;5091108;28;20486;-54
2021/11/08 00:34:00;;;;;;;16.90;8.17;;;8.00;99.90;;;;;;5091307;28;20443;-54
2021/11/08 00:36:26;;;;;;;17.98;8.05;;;7.90;99.90;;;;;;5086035;28;20477;-53
2021/11/08 00:38:52;;;;;;;15.88;8.18;;;8.00;99.90;;;;;;5091196;28;20843;-53
2021/11/08 00:41:17;;;;;;;16.57;7.37;;;7.90;99.90;;;;;;5090030;28;20440;-54
2021/11/08 00:43:43;;;;;;;16.48;7.82;;;7.90;99.90;;;;;;5091216;28;20457;-54
2021/11/08 00:46:09;;;;;;;15.90;7.57;;;7.80;99.90;;;;;;5089914;28;20423;-54
2021/11/08 00:48:36;;;;;;;17.83;7.80;;;7.70;99.90;;;;;;5082031;28;20390;-54
2021/11/08 00:51:03;;;;;;;17.73;7.43;;;7.60;99.90;;;;;;5081651;28;20399;-55
2021/11/08 00:53:31;;;;;;;16.02;7.63;;;7.60;99.90;;;;;;5070399;28;20488;-54
2021/11/08 00:55:59;;;;;;;14.05;7.55;;;7.50;99.90;;;;;;5070859;28;20387;-54
2021/11/08 00:58:33;;;;;;;16.40;7.50;;;7.50;99.90;;;;;;5070243;28;20394;-54
2021/11/08 01:01:03;;;;;;;16.42;7.68;;;7.30;99.90;;;;;;5070460;28;20921;-54
2021/11/08 01:03:31;;;;;;;15.48;7.78;;;7.30;99.90;;;;;;5069797;28;20830;-53
2021/11/08 01:05:57;;;;;;;17.50;7.45;;;7.30;99.90;;;;;;5070242;28;20376;-53
2021/11/08 01:08:22;;;;;;;18.13;7.70;;;7.30;99.90;;;;;;5069587;28;20390;-53
2021/11/08 01:10:50;;;;;;;18.90;8.40;;;7.10;99.90;;;;;;5070035;28;20419;-53
2021/11/08 01:13:17;;;;;;;18.10;8.20;;;7.00;99.90;;;;;;5069682;28;20395;-53
2021/11/08 01:15:43;;;;;;;18.88;9.27;;;6.90;99.90;;;;;;5052160;28;20406;-54
2021/11/08 01:18:09;;;;;;;18.60;8.93;;;6.80;99.90;;;;;;5069739;28;20462;-54
2021/11/08 01:20:35;;;;;;;17.40;9.13;;;6.60;99.90;;;;;;5069889;28;20382;-54
2021/11/08 01:23:04;;;;;;;20.83;9.32;;;6.50;99.90;;;;;;5069528;28;20760;-54
2021/11/08 01:25:33;;;;;;;19.85;9.32;;;6.50;99.90;;;;;;5069122;28;20376;-54
2021/11/08 01:28:02;;;;;;;20.00;9.63;;;6.40;99.90;;;;;;5070145;28;20380;-54
2021/11/08 01:30:28;;;;;;;23.30;11.13;;;6.80;99.90;;;;;;5068923;28;20384;-54
2021/11/08 01:33:07;;;;;;;20.33;10.15;;;6.30;99.90;;;;;;5069809;28;20543;-54
2021/11/08 01:35:41;;;;;;;23.30;9.82;;;6.40;99.90;;;;;;5051519;28;20395;-54
2021/11/08 01:38:11;;;;;;;18.43;9.17;;;6.30;99.90;;;;;;5069969;28;20376;-53
2021/11/08 01:40:38;;;;;;;20.70;9.35;;;6.10;99.90;;;;;;5069765;28;20927;-54
2021/11/08 01:43:05;;;;;;;19.30;9.77;;;6.00;99.90;;;;;;5076621;28;20866;-54
2021/11/08 01:45:31;;;;;;;19.77;9.63;;;6.20;99.90;;;;;;5089087;28;21136;-54
2021/11/08 01:47:57;;;;;;;18.63;8.95;;;6.10;99.90;;;;;;5089699;28;20366;-54
2021/11/08 01:50:24;;;;;;;20.70;9.50;;;6.10;99.90;;;;;;5089399;28;20723;-54
2021/11/08 01:52:50;;;;;;;19.80;10.50;;;6.10;99.90;;;;;;5090020;28;20409;-54
2021/11/08 01:55:17;;;;;;;26.67;10.82;;;6.10;99.90;;;;;;5088956;28;20389;-54
2021/11/08 01:57:43;;;;;;;19.80;9.63;;;6.10;99.90;;;;;;5089038;28;20382;-54
2021/11/08 02:00:10;;;;;;;22.23;9.70;;;6.20;99.90;;;;;;5089204;28;20374;-53
2021/11/08 02:02:36;;;;;;;20.08;10.10;;;6.10;99.90;;;;;;5089429;28;20459;-54
2021/11/08 02:05:04;;;;;;;18.30;9.85;;;6.00;99.90;;;;;;5084982;28;20411;-54
2021/11/08 02:07:30;;;;;;;19.90;9.65;;;6.10;99.90;;;;;;5068760;28;20466;-54
2021/11/08 02:09:56;;;;;;;21.23;9.90;;;6.00;99.90;;;;;;5068994;28;20566;-54
2021/11/08 02:12:22;;;;;;;24.45;10.20;;;6.00;99.90;;;;;;5048511;28;20465;-54
2021/11/08 02:14:48;;;;;;;25.57;10.57;;;6.00;99.90;;;;;;5049278;28;20463;-54
2021/11/08 02:17:14;;;;;;;24.17;9.85;;;5.90;99.90;;;;;;5048399;28;20385;-54
2021/11/08 02:19:40;;;;;;;20.85;10.63;;;5.80;99.90;;;;;;5049057;28;20721;-53
2021/11/08 02:22:06;;;;;;;21.73;9.40;;;5.70;99.90;;;;;;5035378;28;20398;-53
2021/11/08 02:24:34;;;;;;;22.35;9.30;;;5.70;99.90;;;;;;5068574;28;20379;-54
2021/11/08 02:27:00;;;;;;;18.48;9.40;;;5.60;99.90;;;;;;5069279;28;20375;-53
2021/11/08 02:29:25;;;;;;;22.83;9.30;;;5.50;99.90;;;;;;5068589;28;20406;-54
2021/11/08 02:31:51;;;;;;;23.40;9.70;;;5.50;99.90;;;;;;5069311;28;20411;-53
2021/11/08 02:34:18;;;;;;;23.23;9.53;;;5.40;99.90;;;;;;5068377;28;20391;-54
2021/11/08 02:36:43;;;;;;;22.20;10.67;;;5.50;99.90;;;;;;5069039;28;20384;-53
2021/11/08 02:39:24;;;;;;;24.23;9.95;;;5.40;99.90;;;;;;5051244;28;20741;-53
2021/11/08 02:41:50;;;;;;;23.73;10.02;;;5.60;99.90;;;;;;5049304;28;20402;-53
2021/11/08 02:44:16;;;;;;;24.25;9.80;;;5.30;99.90;;;;;;5048431;28;20382;-54
2021/11/08 02:46:42;;;;;;;24.35;10.13;;;5.20;99.90;;;;;;5049210;28;20382;-54
2021/11/08 02:49:12;;;;;;;23.02;11.38;;;5.30;99.90;;;;;;5049125;28;20381;-53
2021/11/08 02:51:43;;;;;;;22.23;9.70;;;5.20;99.90;;;;;;5048344;28;20756;-54
2021/11/08 02:54:15;;;;;;;24.98;9.85;;;5.20;99.90;;;;;;5049281;28;20843;-53
2021/11/08 02:56:40;;;;;;;20.80;9.50;;;5.30;99.90;;;;;;5049206;28;20390;-53
2021/11/08 02:59:06;;;;;;;21.03;9.43;;;5.50;99.90;;;;;;5048990;28;20897;-54
2021/11/08 03:01:33;;;;;;;21.70;9.80;;;5.40;99.90;;;;;;5048022;28;20392;-54
2021/11/08 03:04:01;;;;;;;21.65;10.68;;;5.50;99.90;;;;;;5069049;28;20500;-53
2021/11/08 03:06:32;;;;;;;20.93;10.53;;;5.60;99.90;;;;;;5064724;28;20392;-54
2021/11/08 03:09:12;;;;;;;20.70;10.68;;;5.60;99.90;;;;;;5068951;28;20390;-53
2021/11/08 03:11:38;;;;;;;20.45;9.23;;;5.50;99.90;;;;;;5086270;28;20429;-53
2021/11/08 03:14:06;;;;;;;20.47;9.27;;;5.50;99.90;;;;;;5093044;28;20722;-53
2021/11/08 03:19:01;;;;;;;18.20;8.53;;;5.30;99.90;;;;;;5083861;28;20406;-53
2021/11/08 03:21:28;;;;;;;20.30;8.95;;;6.10;99.90;;;;;;5071785;28;20440;-53
2021/11/08 03:23:58;;;;;;;17.27;8.20;;;5.20;99.90;;;;;;5072121;28;20376;-53
2021/11/08 03:29:10;;;;;;;17.97;8.23;;;5.30;99.90;;;;;;5056647;28;20766;-53
2021/11/08 03:31:36;;;;;;;21.38;9.35;;;5.30;99.90;;;;;;5071265;28;20868;-53
2021/11/08 03:34:02;;;;;;;25.20;10.00;;;5.20;99.90;;;;;;5072039;28;20384;-53
2021/11/08 03:36:28;;;;;;;19.02;8.48;;;5.10;99.90;;;;;;5053329;28;20853;-54
2021/11/08 03:38:55;;;;;;;21.25;8.75;;;5.00;99.90;;;;;;5054224;28;20741;-53
2021/11/08 03:41:21;;;;;;;17.90;8.10;;;4.90;99.90;;;;;;5070849;28;20399;-53
2021/11/08 03:43:46;;;;;;;20.10;9.03;;;4.70;99.90;;;;;;5071864;28;20391;-54
2021/11/08 03:46:12;;;;;;;26.38;12.13;;;6.20;99.90;;;;;;5072180;28;20374;-53
2021/11/08 03:48:38;;;;;;;16.43;8.60;;;4.60;99.90;;;;;;5071224;28;20379;-53
2021/11/08 03:51:04;;;;;;;18.70;8.70;;;4.50;99.90;;;;;;5071937;28;20380;-53
2021/11/08 03:53:30;;;;;;;17.92;8.27;;;4.90;99.90;;;;;;5071287;28;20388;-54
2021/11/08 03:55:56;;;;;;;17.40;8.50;;;4.40;99.90;;;;;;5071771;28;20376;-53
2021/11/08 03:58:21;;;;;;;24.58;8.30;;;4.40;99.90;;;;;;5071134;28;20376;-53
2021/11/08 04:00:49;;;;;;;23.03;9.77;;;4.40;99.90;;;;;;5072016;28;20412;-53
2021/11/08 04:03:15;;;;;;;22.45;8.65;;;4.50;99.90;;;;;;5071705;28;20470;-53
2021/11/08 04:05:42;;;;;;;23.00;9.93;;;4.60;99.90;;;;;;5070977;28;20794;-53
2021/11/08 04:08:13;;;;;;;20.40;9.90;;;4.50;99.90;;;;;;5054156;28;20372;-53
2021/11/08 04:10:41;;;;;;;26.95;10.05;;;4.60;99.90;;;;;;5070682;28;20396;-54
2021/11/08 04:13:09;;;;;;;23.60;9.25;;;4.40;99.90;;;;;;5071595;28;20491;-53
2021/11/08 04:15:40;;;;;;;19.25;8.63;;;4.30;99.90;;;;;;5070891;28;20411;-53
2021/11/08 04:18:14;;;;;;;23.85;9.65;;;4.30;99.90;;;;;;5090804;28;20889;-53
2021/11/08 04:20:43;;;;;;;22.48;9.85;;;4.30;99.90;;;;;;5090264;28;20938;-53
2021/11/08 04:23:10;;;;;;;27.05;9.60;;;4.30;99.90;;;;;;5091622;28;20436;-53
2021/11/08 04:25:36;;;;;;;23.45;9.40;;;4.40;99.90;;;;;;5091045;28;20374;-53
2021/11/08 04:28:01;;;;;;;23.45;9.95;;;4.30;99.90;;;;;;5091707;28;20398;-53
2021/11/08 04:30:29;;;;;;;18.38;8.32;;;4.30;99.90;;;;;;5090100;28;20391;-53
2021/11/08 04:35:42;;;;;;;21.05;8.48;;;4.30;99.90;;;;;;5090911;28;20920;-53
2021/11/08 04:51:30;;;;;;;22.38;8.85;;;4.00;99.90;;;;;;5070169;28;20487;-54
2021/11/08 05:21:49;;;;;;;17.27;8.95;;;4.00;99.90;;;;;;5070092;28;20906;-54
2021/11/08 05:32:15;;;;;;;21.70;9.00;;;3.80;99.90;;;;;;5069106;28;20480;-54
2021/11/08 05:34:41;;;;;;;20.42;8.90;;;3.80;99.90;;;;;;5072689;28;20386;-55
2021/11/08 05:37:10;;;;;;;23.02;9.38;;;3.70;99.90;;;;;;5069303;28;20887;-54
2021/11/08 05:39:54;;;;;;;20.95;10.40;;;3.80;99.90;;;;;;5069203;28;20483;-54
2021/11/08 05:42:21;;;;;;;26.87;10.40;;;3.90;99.90;;;;;;5069704;28;20414;-54
2021/11/08 05:44:48;;;;;;;23.47;10.90;;;5.40;99.90;;;;;;5076852;28;20405;-54
2021/11/08 05:47:13;;;;;;;27.90;10.70;;;4.10;99.90;;;;;;5070466;28;20412;-54
2021/11/08 05:49:39;;;;;;;21.00;9.77;;;4.20;99.90;;;;;;5069069;28;20396;-54
2021/11/08 05:52:06;;;;;;;29.52;10.80;;;4.40;99.90;;;;;;5069435;28;20407;-54
2021/11/08 05:54:32;;;;;;;22.38;9.18;;;4.40;99.90;;;;;;5070005;28;20754;-54
2021/11/08 05:57:15;;;;;;;23.80;10.20;;;4.40;99.90;;;;;;5069444;28;20864;-54
2021/11/08 06:51:36;;;;;;;21.33;8.35;;;4.90;99.90;;;;;;5092526;28;20814;-54
2021/11/08 06:54:03;;;;;;;17.55;9.13;;;5.00;99.90;;;;;;5092946;28;20385;-54
2021/11/08 06:56:34;;;;;;;17.85;7.97;;;5.20;99.90;;;;;;5093054;28;20445;-55
2021/11/08 06:59:03;;;;;;;17.98;7.47;;;5.30;99.90;;;;;;5093672;28;20381;-54
2021/11/08 07:01:29;;;;;;;14.35;7.47;;;5.50;99.90;;;;;;5092465;28;20476;-55
2021/11/08 07:03:56;;;;;;;17.98;7.30;;;5.60;99.90;;;;;;5085657;28;20397;-54
2021/11/08 07:06:23;;;;;;;17.02;7.35;;;5.50;99.90;;;;;;5081698;28;20888;-52
2021/11/08 07:08:49;;;;;;;17.35;7.38;;;5.50;99.90;;;;;;5088038;28;20908;-54
2021/11/08 07:11:15;;;;;;;16.80;7.93;;;5.40;99.90;;;;;;5074071;28;20406;-54
2021/11/08 07:13:41;;;;;;;14.32;7.13;;;5.30;99.90;;;;;;5074915;28;20382;-54
2021/11/08 07:16:07;;;;;;;15.93;7.28;;;5.30;99.90;;;;;;5092795;28;20469;-54
2021/11/08 07:18:33;;;;;;;18.38;7.63;;;5.40;99.90;;;;;;5091807;28;20495;-55
2021/11/08 07:20:58;;;;;;;13.20;7.10;;;5.80;99.90;;;;;;5091051;28;20888;-52
2021/11/08 07:23:24;;;;;;;13.07;6.65;;;6.10;99.90;;;;;;5088360;28;20458;-52
2021/11/08 07:25:50;;;;;;;18.30;8.70;;;6.50;99.90;;;;;;5071365;28;20383;-53
2021/11/08 07:28:15;;;;;;;18.27;7.50;;;6.80;99.90;;;;;;5084502;28;20382;-52
2021/11/08 07:30:44;;;;;;;13.60;7.00;;;7.20;99.90;;;;;;5089628;28;20748;-52
2021/11/08 07:33:10;;;;;;;13.23;5.70;;;7.30;99.90;;;;;;5092680;28;20406;-55
2021/11/08 07:35:36;;;;;;;15.85;6.38;;;8.00;99.90;;;;;;5091866;28;20516;-56
2021/11/08 07:38:02;;;;;;;10.45;5.75;;;9.10;99.90;;;;;;5092518;28;20374;-53
2021/11/08 07:40:28;;;;;;;11.37;5.67;;;10.50;99.90;;;;;;5079304;28;20411;-53
2021/11/08 07:42:54;;;;;;;11.10;6.13;;;12.00;99.90;;;;;;5071477;28;20379;-53
2021/11/08 07:45:21;;;;;;;15.55;6.28;;;12.60;99.90;;;;;;5072062;28;20470;-54
2021/11/08 07:47:47;;;;;;;14.02;6.60;;;12.80;99.90;;;;;;5071028;28;20411;-54
2021/11/08 07:50:12;;;;;;;11.50;6.57;;;12.70;99.90;;;;;;5089469;28;20374;-53
2021/11/08 07:52:38;;;;;;;11.13;6.50;;;12.70;99.90;;;;;;5091292;28;20983;-54
2021/11/08 07:55:05;;;;;;;13.10;8.43;;;13.00;99.90;;;;;;5091563;28;20472;-54
2021/11/08 07:57:31;;;;;;;10.57;5.53;;;;;;;;;;5091710;28;20431;-55
2021/11/08 07:59:57;;;;;;;13.52;5.63;;;;;;;;;;5086097;28;20401;-53
2021/11/08 08:02:24;;;;;;;15.20;6.07;;;;;;;;;;5091786;28;20967;-54
2021/11/08 08:04:50;;;;;;;14.20;7.03;;;;;;;;;;5091679;28;20370;-54
2021/11/08 08:07:16;;;;;;;13.88;6.65;;;;;;;;;;5092148;28;20479;-54
2021/11/08 08:09:42;;;;;;;14.07;6.60;;;;;;;;;;5091217;28;20890;-54
2021/11/08 08:12:09;;;;;;;16.08;6.38;;;;;;;;;;5092238;28;20871;-53
2021/11/08 08:14:35;;;;;;;15.95;14.35;;;14.90;99.90;;;;;;5091154;28;20385;-55
2021/11/08 08:17:02;;;;;;;18.73;16.73;;;15.60;99.90;;;;;;5091508;28;20387;-54
2021/11/08 08:19:28;;;;;;;17.93;16.37;;;16.30;99.70;;;;;;5091853;28;20457;-54
2021/11/08 08:21:54;;;;;;;18.50;16.60;;;16.20;99.90;;;;;;5089829;28;20602;-53
2021/11/08 08:24:19;;;;;;;15.30;11.40;;;16.50;99.90;;;;;;5091742;28;20378;-54
2021/11/08 08:26:45;;;;;;;12.87;9.60;;;17.60;97.80;;;;;;5091006;28;20380;-54
2021/11/08 08:29:12;;;;;;;13.88;6.95;;;18.50;94.40;;;;;;5091758;28;20457;-53
2021/11/08 08:31:41;;;;;;;12.18;6.60;;;17.70;95.00;;;;;;5090343;28;20954;-54
2021/11/08 08:34:10;;;;;;;12.90;7.25;;;18.20;95.00;;;;;;5091609;28;20428;-54
2021/11/08 08:36:36;;;;;;;11.73;6.20;;;19.10;91.90;;;;;;5090389;28;20370;-55
2021/11/08 08:39:04;;;;;;;11.13;6.10;;;18.60;92.00;;;;;;5091546;28;20385;-53
2021/11/08 08:41:31;;;;;;;12.77;7.50;;;18.60;91.30;;;;;;5073585;28;20459;-53
2021/11/08 08:43:57;;;;;;;14.70;6.05;;;18.60;90.90;;;;;;5090224;28;20389;-53
2021/11/08 08:46:22;;;;;;;14.55;6.90;;;17.80;91.50;;;;;;5090782;28;20469;-54
2021/11/08 08:48:49;;;;;;;13.00;6.57;;;17.80;92.80;;;;;;5090572;28;20859;-54
2021/11/08 08:51:15;;;;;;;13.18;6.30;;;18.20;92.10;;;;;;5090994;28;21264;-54
2021/11/08 08:53:40;;;;;;;14.33;7.93;;;18.30;92.10;;;;;;5090435;28;20457;-53
2021/11/08 08:56:06;;;;;;;10.95;6.28;;;18.50;91.40;;;;;;5090474;28;20382;-54
2021/11/08 08:58:32;;;;;;;11.55;7.50;;;17.90;91.90;;;;;;5090219;28;20449;-53
2021/11/08 09:00:58;;;;;;;15.83;7.30;;;17.60;92.60;;;;;;5089961;28;20398;-53
2021/11/08 09:03:24;;;;;;;13.57;8.38;;;17.30;93.70;;;;;;5086882;28;20379;-54
2021/11/08 09:05:50;;;;;;;14.00;7.77;;;17.70;93.70;;;;;;5072301;28;20421;-53
2021/11/08 09:08:19;;;;;;;14.77;9.00;;;18.10;91.90;;;;;;5086816;28;20519;-53
2021/11/08 09:10:45;;;;;;;15.23;9.00;;;18.30;91.30;;;;;;5078753;28;20424;-53
2021/11/08 09:13:11;;;;;;;14.05;8.30;;;18.50;92.40;;;;;;5090229;28;20470;-54
2021/11/08 09:15:38;;;;;;;15.55;10.20;;;18.50;92.60;;;;;;5081897;28;20447;-55
2021/11/08 09:18:05;;;;;;;16.20;10.50;;;18.80;91.30;;;;;;5070238;28;20899;-53
2021/11/08 09:20:32;;;;;;;15.63;9.52;;;18.90;91.80;;;;;;5052229;28;20819;-53
2021/11/08 09:22:58;;;;;;;15.25;8.45;;;18.90;91.30;;;;;;5074109;28;20872;-53
2021/11/08 09:25:26;;;;;;;14.07;9.10;;;18.70;90.90;;;;;;5072866;28;20394;-53
2021/11/08 09:27:56;;;;;;;16.63;8.93;;;18.30;92.20;;;;;;5081628;28;20473;-53
2021/11/08 09:30:25;;;;;;;15.20;9.32;;;18.20;91.80;;;;;;5082658;28;20423;-54
2021/11/08 09:32:51;;;;;;;16.40;8.50;;;18.60;92.60;;;;;;5079769;28;20430;-54
2021/11/08 09:35:18;;;;;;;15.67;9.00;;;18.80;91.60;;;;;;5078826;28;20783;-53
2021/11/08 09:37:44;;;;;;;14.80;7.10;;;19.00;91.50;;;;;;5078429;28;20402;-54
2021/11/08 09:40:20;;;;;;;12.38;7.93;;;18.80;91.90;;;;;;5086610;28;20406;-54
2021/11/08 09:42:48;;;;;;;14.32;7.03;;;18.90;92.10;;;;;;5079364;28;20388;-53
2021/11/08 09:45:15;;;;;;;12.60;6.07;;;18.60;91.50;;;;;;5078301;28;20787;-54
2021/11/08 09:47:40;;;;;;;12.80;6.45;;;19.30;91.60;;;;;;5079187;28;20385;-55
2021/11/08 09:50:12;;;;;;;11.65;5.63;;;20.00;89.10;;;;;;5081052;28;20476;-53
2021/11/08 09:52:42;;;;;;;11.90;6.47;;;20.10;87.80;;;;;;5082473;28;20418;-55
2021/11/08 09:55:12;;;;;;;15.32;6.93;;;19.40;88.80;;;;;;5080159;28;20372;-54
2021/11/08 09:57:39;;;;;;;14.85;6.25;;;19.10;90.10;;;;;;5078549;28;20399;-54
2021/11/08 10:00:15;;;;;;;12.60;8.07;;;19.00;90.60;;;;;;5078843;28;20519;-53
2021/11/08 10:02:48;;;;;;;14.82;7.60;;;18.50;91.80;;;;;;5079348;28;20759;-55
2021/11/08 10:05:14;;;;;;;14.50;7.63;;;18.70;92.00;;;;;;5079294;28;20463;-53
2021/11/08 10:07:39;;;;;;;15.20;7.90;;;17.60;93.10;;;;;;5061524;28;20500;-55
2021/11/08 10:10:06;;;;;;;13.27;7.90;;;17.60;93.80;;;;;;5078698;28;20481;-53
2021/11/08 10:12:33;;;;;;;14.18;8.00;;;16.70;94.40;;;;;;5078122;28;20414;-53
2021/11/08 10:14:59;;;;;;;15.13;8.73;;;17.30;95.80;;;;;;5077854;28;20573;-54
2021/11/08 10:17:28;;;;;;;14.63;8.80;;;18.30;93.20;;;;;;5079282;28;20410;-53
2021/11/08 10:19:54;;;;;;;15.93;8.97;;;18.30;93.30;;;;;;5076816;28;20398;-53
2021/11/08 10:22:21;;;;;;;14.63;8.40;;;16.60;93.40;;;;;;5081488;28;20469;-54
2021/11/08 10:24:49;;;;;;;15.90;8.27;;;17.20;95.50;;;;;;5078941;28;20378;-53
2021/11/08 10:27:17;;;;;;;14.85;8.38;;;16.90;95.30;;;;;;5079763;28;20457;-54
2021/11/08 10:29:45;;;;;;;18.48;10.05;;;16.80;95.70;;;;;;5078510;28;20471;-55
2021/11/08 10:32:12;;;;;;;14.88;9.75;;;16.80;96.00;;;;;;5078270;28;20433;-53
2021/11/08 10:34:52;;;;;;;19.08;10.45;;;17.30;96.50;;;;;;5080533;28;20403;-53
2021/11/08 10:37:24;;;;;;;18.05;10.15;;;16.90;95.90;;;;;;5078088;28;20395;-53
2021/11/08 10:39:52;;;;;;;16.67;10.38;;;16.60;97.90;;;;;;5080637;28;20516;-53
2021/11/08 10:42:24;;;;;;;18.13;9.55;;;16.30;97.60;;;;;;5079884;28;20426;-53
2021/11/08 10:44:52;;;;;;;16.70;9.48;;;15.80;98.70;;;;;;5077351;28;20386;-53
2021/11/08 10:47:21;;;;;;;16.05;8.77;;;15.60;98.80;;;;;;5059083;28;20393;-53
2021/11/08 10:49:48;;;;;;;15.48;8.70;;;15.20;99.90;;;;;;5079025;28;20487;-56
2021/11/08 10:52:15;;;;;;;15.82;8.90;;;15.40;99.90;;;;;;5083716;28;20906;-55
2021/11/08 10:54:58;;;;;;;22.73;11.90;;;15.60;99.90;;;;;;5085374;28;20432;-55
2021/11/08 10:57:27;;;;;;;18.10;9.68;;;16.00;99.90;;;;;;5089484;28;20456;-55
2021/11/08 10:59:55;;;;;;;16.00;10.60;;;16.20;98.40;;;;;;5088544;28;20385;-56
2021/11/08 11:02:28;;;;;;;18.08;9.80;;;16.00;98.80;;;;;;5089484;28;20386;-55
2021/11/08 11:04:58;;;;;;;18.63;9.57;;;15.90;99.10;;;;;;5088387;28;20400;-55
2021/11/08 11:07:31;;;;;;;18.05;9.50;;;15.70;98.70;;;;;;5089412;28;20428;-55
2021/11/08 11:10:08;;;;;;;21.48;9.02;;;15.50;99.90;;;;;;5085993;28;20774;-53
2021/11/08 11:12:34;;;;;;;19.50;11.45;;;15.10;99.90;;;;;;5080686;28;20517;-53
2021/11/08 11:15:19;;;;;;;19.40;8.57;;;14.60;99.90;;;;;;5082063;28;20772;-53
2021/11/08 11:17:55;;;;;;;16.80;7.67;;;14.00;99.90;;;;;;5050822;28;20853;-53
2021/11/08 11:20:24;;;;;;;13.50;7.50;;;14.20;99.90;;;;;;5068613;28;20403;-53
2021/11/08 11:23:19;;;;;;;17.95;8.80;;;14.00;99.90;;;;;;5073849;28;20494;-53
2021/11/08 11:25:51;;;;;;;19.55;10.43;;;13.60;99.90;;;;;;5077497;28;20424;-53
2021/11/08 11:28:35;;;;;;;18.08;10.10;;;13.40;99.90;;;;;;5088042;28;20475;-53
2021/11/08 11:31:15;;;;;;;14.80;7.40;;;13.40;99.90;;;;;;5085126;28;20382;-53
2021/11/08 11:33:41;;;;;;;16.70;7.00;;;13.40;99.90;;;;;;5086767;28;20909;-53
2021/11/08 11:36:12;;;;;;;17.02;8.27;;;13.70;99.90;;;;;;5086896;28;21008;-53
2021/11/08 11:38:50;;;;;;;15.90;6.75;;;13.80;99.90;;;;;;5083141;28;20405;-53
2021/11/08 11:41:22;;;;;;;16.13;7.70;;;13.40;99.90;;;;;;5084935;28;20419;-53
2021/11/08 11:43:56;;;;;;;14.45;7.40;;;13.30;99.90;;;;;;5079217;28;20404;-54
2021/11/08 11:46:24;;;;;;;15.45;7.30;;;13.40;99.90;;;;;;5085418;28;20403;-53
2021/11/08 11:48:50;;;;;;;18.65;8.23;;;13.70;99.90;;;;;;5077752;28;20380;-53
2021/11/08 11:51:19;;;;;;;15.88;7.40;;;13.60;99.90;;;;;;5074438;28;20408;-53
2021/11/08 11:53:46;;;;;;;15.15;8.50;;;13.50;99.90;;;;;;5085096;28;20398;-53
2021/11/08 11:56:13;;;;;;;16.38;7.65;;;13.30;99.90;;;;;;5082795;28;20458;-53
2021/11/08 11:58:39;;;;;;;15.80;7.85;;;13.10;99.90;;;;;;5088568;28;20439;-53
2021/11/08 12:01:09;;;;;;;14.00;7.60;;;13.10;99.90;;;;;;5090962;28;20374;-53
2021/11/08 12:03:35;;;;;;;14.15;8.05;;;13.40;99.90;;;;;;5073728;28;20432;-53
2021/11/08 12:06:02;;;;;;;15.27;7.43;;;13.30;99.90;;;;;;5091192;28;20366;-53
2021/11/08 12:08:38;;;;;;;17.87;9.20;;;13.40;99.90;;;;;;5091856;28;20461;-53
2021/11/08 12:11:08;;;;;;;17.83;8.45;;;13.50;99.90;;;;;;5090703;28;20406;-53
2021/11/08 12:13:40;;;;;;;14.90;7.20;;;13.10;99.90;;;;;;5087481;28;20422;-53
2021/11/08 12:16:21;;;;;;;12.00;5.13;;;12.80;99.90;;;;;;5052961;28;20734;-53
2021/11/08 12:18:50;;;;;;;14.45;5.50;;;13.10;99.90;;;;;;5071806;28;21090;-54
2021/11/08 12:21:33;;;;;;;13.13;6.93;;;13.50;99.90;;;;;;5085761;28;20389;-53
2021/11/08 12:24:01;;;;;;;13.15;5.40;;;13.60;99.90;;;;;;5081222;28;20513;-54
2021/11/08 12:26:30;;;;;;;12.77;6.28;;;13.60;99.90;;;;;;5078004;28;20406;-53
2021/11/08 12:29:13;;;;;;;17.80;6.88;;;13.70;99.90;;;;;;5088330;28;20390;-53
2021/11/08 12:31:39;;;;;;;17.35;6.20;;;13.70;99.90;;;;;;5090774;28;20501;-53
2021/11/08 12:34:08;;;;;;;15.77;7.35;;;13.70;99.90;;;;;;5090794;28;20374;-53
2021/11/08 12:36:35;;;;;;;15.80;8.70;;;13.60;99.90;;;;;;5091633;28;20373;-53
2021/11/08 12:39:12;;;;;;;16.53;6.13;;;13.40;99.90;;;;;;5080925;28;20480;-53
2021/11/08 12:41:47;;;;;;;16.20;5.70;;;13.10;99.90;;;;;;5077011;28;20415;-53
2021/11/08 12:44:17;;;;;;;14.73;6.03;;;13.30;99.90;;;;;;5082826;28;20407;-53
2021/11/08 12:46:59;;;;;;;17.02;5.80;;;13.20;99.90;;;;;;5080314;28;20430;-53
2021/11/08 12:49:39;;;;;;;14.38;6.45;;;13.10;99.90;;;;;;5082815;28;20448;-53
2021/11/08 12:52:14;;;;;;;13.95;5.57;;;13.10;99.90;;;;;;5082568;28;20419;-53
2021/11/08 12:55:00;;;;;;;12.02;5.72;;;13.00;99.90;;;;;;5080671;28;20467;-53
2021/11/08 12:57:27;;;;;;;14.02;6.45;;;12.80;99.90;;;;;;5081264;28;20424;-53
2021/11/08 12:59:55;;;;;;;15.60;7.10;;;12.50;99.90;;;;;;5081634;28;20390;-54
2021/11/08 13:02:38;;;;;;;15.82;6.70;;;12.20;99.90;;;;;;5085060;28;20402;-54
2021/11/08 13:05:08;;;;;;;14.48;6.35;;;12.20;99.90;;;;;;5084381;28;20402;-53
2021/11/08 13:07:37;;;;;;;15.55;6.80;;;12.30;99.90;;;;;;5082020;28;20455;-53
2021/11/08 13:10:17;;;;;;;12.40;6.40;;;12.40;99.90;;;;;;5078695;28;20891;-54
2021/11/08 13:12:43;;;;;;;17.63;6.80;;;12.80;99.90;;;;;;5078375;28;20415;-53
2021/11/08 13:15:10;;;;;;;21.38;8.50;;;12.90;99.90;;;;;;5080441;28;20402;-53
2021/11/08 13:17:55;;;;;;;14.82;6.20;;;13.00;99.90;;;;;;5059980;28;20898;-54
2021/11/08 13:20:25;;;;;;;13.82;5.82;;;12.90;99.90;;;;;;5083248;28;21041;-54
2021/11/08 13:23:04;;;;;;;14.80;6.40;;;12.90;99.90;;;;;;5083836;28;20374;-53
2021/11/08 13:25:52;;;;;;;12.73;5.90;;;12.90;99.90;;;;;;5080597;28;20403;-53
2021/11/08 13:28:21;;;;;;;12.10;6.30;;;12.50;99.90;;;;;;5084521;28;20824;-54
2021/11/08 13:30:52;;;;;;;16.77;6.40;;;12.60;99.90;;;;;;5079458;28;20387;-53
2021/11/08 13:33:30;;;;;;;20.25;7.95;;;12.80;99.90;;;;;;5081063;28;20414;-53
2021/11/08 13:35:56;;;;;;;16.00;6.57;;;13.10;99.90;;;;;;5079829;28;20916;-54
2021/11/08 13:38:24;;;;;;;15.10;7.22;;;13.10;99.90;;;;;;5082252;28;20413;-53
2021/11/08 13:40:57;;;;;;;16.98;7.45;;;13.00;99.90;;;;;;5083900;28;20404;-53
2021/11/08 13:43:26;;;;;;;13.65;6.55;;;13.10;99.90;;;;;;5069006;28;20401;-53
2021/11/08 13:46:06;;;;;;;15.05;5.35;;;13.10;99.90;;;;;;5089754;28;20828;-53
2021/11/08 13:48:33;;;;;;;12.57;5.30;;;13.10;99.90;;;;;;5071296;28;20903;-53
2021/11/08 13:51:17;;;;;;;12.67;5.10;;;13.20;99.90;;;;;;5084967;28;20406;-54
2021/11/08 13:53:44;;;;;;;16.48;6.00;;;13.20;99.90;;;;;;5081934;28;20501;-53
2021/11/08 13:56:11;;;;;;;14.07;5.93;;;13.10;99.90;;;;;;5083884;28;20398;-53
2021/11/08 13:58:47;;;;;;;10.55;5.82;;;13.00;99.90;;;;;;5089359;28;20724;-53
2021/11/08 14:01:13;;;;;;;12.77;6.50;;;12.90;99.90;;;;;;5089122;28;20433;-53
2021/11/08 14:03:42;;;;;;;16.80;6.43;;;12.80;99.90;;;;;;5089934;28;20390;-53
2021/11/08 14:06:09;;;;;;;14.43;5.82;;;12.70;99.90;;;;;;5089165;28;20381;-53
2021/11/08 14:08:47;;;;;;;12.70;5.75;;;12.70;99.90;;;;;;5089649;28;20366;-53
2021/11/08 14:11:13;;;;;;;14.57;5.38;;;12.60;99.90;;;;;;5082417;28;20831;-53
2021/11/08 14:13:42;;;;;;;14.05;5.00;;;12.50;99.90;;;;;;5084215;28;20420;-53
2021/11/08 14:16:12;;;;;;;14.85;6.45;;;12.40;99.90;;;;;;5069956;28;20427;-53
2021/11/08 14:18:38;;;;;;;14.40;6.32;;;12.20;99.90;;;;;;5071819;28;20780;-53
2021/11/08 14:21:11;;;;;;;14.15;5.40;;;12.20;99.90;;;;;;5088950;28;20465;-53
2021/11/08 14:23:39;;;;;;;16.45;6.55;;;12.20;99.90;;;;;;5089869;28;20397;-53
2021/11/08 14:26:13;;;;;;;16.70;6.95;;;12.00;99.90;;;;;;5084718;28;20461;-53
2021/11/08 14:28:39;;;;;;;12.65;4.75;;;11.90;99.90;;;;;;5077536;28;20523;-53
2021/11/08 14:31:36;;;;;;;13.50;5.10;;;11.80;99.90;;;;;;5088407;28;20509;-54
2021/11/08 14:34:05;;;;;;;12.68;5.30;;;11.90;99.90;;;;;;5087928;28;20481;-53
2021/11/08 14:36:39;;;;;;;10.18;5.07;;;12.10;99.90;;;;;;5089227;28;20469;-54
2021/11/08 14:39:10;;;;;;;9.13;4.00;;;12.10;99.90;;;;;;5086414;28;20405;-54
2021/11/08 14:41:37;;;;;;;11.55;4.10;;;12.00;99.90;;;;;;5089694;28;20381;-53
2021/11/08 14:44:10;;;;;;;7.43;4.07;;;11.90;99.90;;;;;;5088501;28;20712;-54
2021/11/08 14:46:51;;;;;;;11.18;4.43;;;11.70;99.90;;;;;;5089348;28;20374;-56